SBA - Santa Barbara Muni

Pirep is a free, collaborative database of all public and private airports located within the United States. All pilots are welcome to contribute, edit, and improve any airport they have local knowledge about, no registration required.
Uploaded photos will be licensed under a CC BY-SA 4.0 license. Please only upload photos you have the rights to use.
Tags
Public
METAR / TAF
Flying Clubs
Edit Tags
Food
Camping
Lodging
Car Rental
Bicycles
Swimming
Golfing
Fishing
Hot Springs
Museum
Airpark
Upcoming Events
No upcoming events. Is anything happening here soon?
*
*
*

Where exactly on/near the airport is this event taking place?

Is there a webpage with more information for this event?

Who should be contacted for more information?

What is this event all about?

Repeat every
Description
Last updated: 2023-04-04 14:57:04 PDT
Transient Parking
Fuel Location
Landing & Tie-down Fees
Crew Car Availability
Flying Clubs
Last updated: 2024-03-11 18:12:19 PDT
WiFi Access
Airport Statistics
Location: Santa Barbara, CA
Elevation: 13ft
Sectional: Los Angeles
Activation date: Apr 1940
Fuel: 100LL, A (prices)
Runway 07/25: 6,052ft
Runway 15R/33L: 4,184ft
Runway 15L/33R: 4,180ft
Access: Open to the public
Current Weather — VFR
  • Weather data is strictly informational and not for flight planning purposes.
  • METAR
    2024-05-28 15:18:00 PDT
    Ceiling Wind Temperature Dewpoint Weather Visbility
    Sky clear 250° @ 8kt 62°F 55°F N/A 8SM
    Clouds: Scattered @ 1,400ft
    Raw: KSBA 282218Z 25008KT 8SM SCT014 17/13 A3005 RMK AO2 T01720133
  • TAF
    2024-05-28 13:00:00 PDT – 2024-05-28 16:00:00 PDT
    Ceiling Wind Weather Visbility
    Sky clear 130° @ 12kt, gusts 18kt N/A 6SM
    Clouds: Scattered @ 1,500ft
    Raw: KSBA 281944Z 2820/2918 13012G18KT P6SM SCT015 FM282300 21007KT P6SM SKC FM290300 12006KT P6SM SKC FM290600 VRB03KT P6SM SKC FM291000 VRB03KT 6SM BR OVC008 FM291600 14008KT P6SM OVC010
  • TAF
    2024-05-28 16:00:00 PDT – 2024-05-28 20:00:00 PDT
    Ceiling Wind Weather Visbility
    Sky clear 210° @ 7kt N/A 6SM
    Clouds: @ ft
    Raw: KSBA 281944Z 2820/2918 13012G18KT P6SM SCT015 FM282300 21007KT P6SM SKC FM290300 12006KT P6SM SKC FM290600 VRB03KT P6SM SKC FM291000 VRB03KT 6SM BR OVC008 FM291600 14008KT P6SM OVC010
  • TAF
    2024-05-28 20:00:00 PDT – 2024-05-28 23:00:00 PDT
    Ceiling Wind Weather Visbility
    Sky clear 120° @ 6kt N/A 6SM
    Clouds: @ ft
    Raw: KSBA 281944Z 2820/2918 13012G18KT P6SM SCT015 FM282300 21007KT P6SM SKC FM290300 12006KT P6SM SKC FM290600 VRB03KT P6SM SKC FM291000 VRB03KT 6SM BR OVC008 FM291600 14008KT P6SM OVC010
  • TAF
    2024-05-28 23:00:00 PDT – 2024-05-29 03:00:00 PDT
    Ceiling Wind Weather Visbility
    Sky clear Variable N/A 6SM
    Clouds: @ ft
    Raw: KSBA 281944Z 2820/2918 13012G18KT P6SM SCT015 FM282300 21007KT P6SM SKC FM290300 12006KT P6SM SKC FM290600 VRB03KT P6SM SKC FM291000 VRB03KT 6SM BR OVC008 FM291600 14008KT P6SM OVC010
  • TAF
    2024-05-29 03:00:00 PDT – 2024-05-29 09:00:00 PDT
    Ceiling Wind Weather Visbility
    800ft Variable Mist 6SM
    Clouds: Overcast @ 800ft
    Raw: KSBA 281944Z 2820/2918 13012G18KT P6SM SCT015 FM282300 21007KT P6SM SKC FM290300 12006KT P6SM SKC FM290600 VRB03KT P6SM SKC FM291000 VRB03KT 6SM BR OVC008 FM291600 14008KT P6SM OVC010
  • TAF
    2024-05-29 09:00:00 PDT – 2024-05-29 11:00:00 PDT
    Ceiling Wind Weather Visbility
    1,000ft 140° @ 8kt N/A 6SM
    Clouds: Overcast @ 1,000ft
    Raw: KSBA 281944Z 2820/2918 13012G18KT P6SM SCT015 FM282300 21007KT P6SM SKC FM290300 12006KT P6SM SKC FM290600 VRB03KT P6SM SKC FM291000 VRB03KT 6SM BR OVC008 FM291600 14008KT P6SM OVC010
Click/tap to add an annotation marker to the map
Airport Webcams
No webcams added yet.
Direct links to live image URLs will be displayed inline on this page. URLs to separate webpages will be linked to.
URL:
Direct links to live image URLs will be displayed inline on this page. URLs to separate webpages will be linked to.
URL:
Remarks
  • Ldg fee for part 135 oprs and tsnt acft with max gwt of 10000 lbs or more. fees will be billed/mailed.
  • Rwys 15l/33r and 15r/33l not avbl for sked acr opns with more than 9 psgr seats or unsked acr at least 31 psgr seats.
  • Numerous flocks of birds on and invof arpt.
  • Pure jet touch/go or low apchs prohibited.
  • Due to lmtd ramp space at the airline trml non-sked trnsp cat acft with more than 30 passenger seats are rqrd to ctc arpt opns 805-681-4803 24 hrs prior to arr.
Comments
Leave a comment What was your experience like at this airport?